sensor_id;sensor_type;location;lat;lon;timestamp;temperature;humidity
9971;DHT22;5026;51.494;11.974;2024-01-30T00:00:07;5.10;99.90
9971;DHT22;5026;51.494;11.974;2024-01-30T00:02:35;5.10;99.90
9971;DHT22;5026;51.494;11.974;2024-01-30T00:05:02;5.00;99.90
9971;DHT22;5026;51.494;11.974;2024-01-30T00:07:30;5.10;99.90
9971;DHT22;5026;51.494;11.974;2024-01-30T00:09:58;5.10;99.90
9971;DHT22;5026;51.494;11.974;2024-01-30T00:12:25;5.40;99.90
9971;DHT22;5026;51.494;11.974;2024-01-30T00:14:52;5.40;99.90
9971;DHT22;5026;51.494;11.974;2024-01-30T00:17:19;5.50;99.90
9971;DHT22;5026;51.494;11.974;2024-01-30T00:19:47;5.60;99.90
9971;DHT22;5026;51.494;11.974;2024-01-30T00:22:14;5.40;99.90
9971;DHT22;5026;51.494;11.974;2024-01-30T00:24:41;5.50;99.90
9971;DHT22;5026;51.494;11.974;2024-01-30T00:27:10;5.90;99.90
9971;DHT22;5026;51.494;11.974;2024-01-30T00:29:37;5.50;99.90
9971;DHT22;5026;51.494;11.974;2024-01-30T00:32:04;5.50;99.90
9971;DHT22;5026;51.494;11.974;2024-01-30T00:34:31;5.40;99.90
9971;DHT22;5026;51.494;11.974;2024-01-30T00:36:58;5.40;99.90
9971;DHT22;5026;51.494;11.974;2024-01-30T00:39:25;5.40;99.90
9971;DHT22;5026;51.494;11.974;2024-01-30T00:41:52;5.40;99.90
9971;DHT22;5026;51.494;11.974;2024-01-30T00:44:20;5.40;99.90
9971;DHT22;5026;51.494;11.974;2024-01-30T00:46:47;5.50;99.90
9971;DHT22;5026;51.494;11.974;2024-01-30T00:49:14;5.60;99.90
9971;DHT22;5026;51.494;11.974;2024-01-30T00:51:41;5.50;99.90
9971;DHT22;5026;51.494;11.974;2024-01-30T00:54:08;5.60;99.90
9971;DHT22;5026;51.494;11.974;2024-01-30T00:56:35;5.60;99.90
9971;DHT22;5026;51.494;11.974;2024-01-30T00:59:02;5.60;99.90
9971;DHT22;5026;51.494;11.974;2024-01-30T01:01:31;5.60;99.90
9971;DHT22;5026;51.494;11.974;2024-01-30T01:03:57;5.60;99.90
9971;DHT22;5026;51.494;11.974;2024-01-30T01:06:24;5.50;99.90
9971;DHT22;5026;51.494;11.974;2024-01-30T01:08:52;5.50;99.90
9971;DHT22;5026;51.494;11.974;2024-01-30T01:11:19;5.80;99.90
9971;DHT22;5026;51.494;11.974;2024-01-30T01:13:46;5.50;99.90
9971;DHT22;5026;51.494;11.974;2024-01-30T01:16:12;5.50;99.90
9971;DHT22;5026;51.494;11.974;2024-01-30T01:18:41;5.50;99.90
9971;DHT22;5026;51.494;11.974;2024-01-30T01:21:08;5.50;99.90
9971;DHT22;5026;51.494;11.974;2024-01-30T01:23:34;5.40;99.90
9971;DHT22;5026;51.494;11.974;2024-01-30T01:26:01;5.50;99.90
9971;DHT22;5026;51.494;11.974;2024-01-30T01:28:28;5.50;99.90
9971;DHT22;5026;51.494;11.974;2024-01-30T01:30:55;5.50;99.90
9971;DHT22;5026;51.494;11.974;2024-01-30T01:33:30;5.50;99.90
9971;DHT22;5026;51.494;11.974;2024-01-30T01:35:59;5.50;99.90
9971;DHT22;5026;51.494;11.974;2024-01-30T01:38:28;5.60;99.90
9971;DHT22;5026;51.494;11.974;2024-01-30T01:40:55;5.60;99.90
9971;DHT22;5026;51.494;11.974;2024-01-30T01:43:21;5.60;99.90
9971;DHT22;5026;51.494;11.974;2024-01-30T01:45:48;5.60;99.90
9971;DHT22;5026;51.494;11.974;2024-01-30T01:48:15;5.50;99.90
9971;DHT22;5026;51.494;11.974;2024-01-30T01:50:43;5.60;99.90
9971;DHT22;5026;51.494;11.974;2024-01-30T01:53:12;5.60;99.90
9971;DHT22;5026;51.494;11.974;2024-01-30T01:55:39;5.60;99.90
9971;DHT22;5026;51.494;11.974;2024-01-30T01:58:07;5.60;99.90
9971;DHT22;5026;51.494;11.974;2024-01-30T02:00:36;5.50;99.90
9971;DHT22;5026;51.494;11.974;2024-01-30T02:03:05;5.50;99.90
9971;DHT22;5026;51.494;11.974;2024-01-30T02:05:33;5.50;99.90
9971;DHT22;5026;51.494;11.974;2024-01-30T02:08:01;5.40;99.90
9971;DHT22;5026;51.494;11.974;2024-01-30T02:10:30;5.40;99.90
9971;DHT22;5026;51.494;11.974;2024-01-30T02:12:57;5.40;99.90
9971;DHT22;5026;51.494;11.974;2024-01-30T02:15:24;5.30;99.90
9971;DHT22;5026;51.494;11.974;2024-01-30T02:17:51;5.30;99.90
9971;DHT22;5026;51.494;11.974;2024-01-30T02:20:18;5.20;99.90
9971;DHT22;5026;51.494;11.974;2024-01-30T02:22:46;5.20;99.90
9971;DHT22;5026;51.494;11.974;2024-01-30T02:25:13;5.10;99.90
9971;DHT22;5026;51.494;11.974;2024-01-30T02:27:40;5.00;99.90
9971;DHT22;5026;51.494;11.974;2024-01-30T02:30:08;5.00;99.90
9971;DHT22;5026;51.494;11.974;2024-01-30T02:32:35;5.00;99.90
9971;DHT22;5026;51.494;11.974;2024-01-30T02:35:02;5.00;99.90
9971;DHT22;5026;51.494;11.974;2024-01-30T02:37:29;4.80;99.90
9971;DHT22;5026;51.494;11.974;2024-01-30T02:39:57;4.80;99.90
9971;DHT22;5026;51.494;11.974;2024-01-30T02:42:24;4.80;99.90
9971;DHT22;5026;51.494;11.974;2024-01-30T02:44:51;4.70;99.90
9971;DHT22;5026;51.494;11.974;2024-01-30T02:47:18;4.70;99.90
9971;DHT22;5026;51.494;11.974;2024-01-30T02:49:45;4.70;99.90
9971;DHT22;5026;51.494;11.974;2024-01-30T02:52:12;4.70;99.90
9971;DHT22;5026;51.494;11.974;2024-01-30T02:54:39;4.60;99.90
9971;DHT22;5026;51.494;11.974;2024-01-30T02:57:07;4.70;99.90
9971;DHT22;5026;51.494;11.974;2024-01-30T02:59:34;4.70;99.90
9971;DHT22;5026;51.494;11.974;2024-01-30T03:02:01;4.70;99.90
9971;DHT22;5026;51.494;11.974;2024-01-30T03:04:28;4.60;99.90
9971;DHT22;5026;51.494;11.974;2024-01-30T03:06:56;4.70;99.90
9971;DHT22;5026;51.494;11.974;2024-01-30T03:09:23;4.60;99.90
9971;DHT22;5026;51.494;11.974;2024-01-30T03:11:49;4.60;99.90
9971;DHT22;5026;51.494;11.974;2024-01-30T03:14:18;4.70;99.90
9971;DHT22;5026;51.494;11.974;2024-01-30T03:16:45;4.60;99.90
9971;DHT22;5026;51.494;11.974;2024-01-30T03:19:12;4.80;99.90
9971;DHT22;5026;51.494;11.974;2024-01-30T03:21:38;4.60;99.90
9971;DHT22;5026;51.494;11.974;2024-01-30T03:24:06;4.80;99.90
9971;DHT22;5026;51.494;11.974;2024-01-30T03:26:33;4.70;99.90
9971;DHT22;5026;51.494;11.974;2024-01-30T03:28:59;4.70;99.90
9971;DHT22;5026;51.494;11.974;2024-01-30T03:31:28;4.70;99.90
9971;DHT22;5026;51.494;11.974;2024-01-30T03:33:55;4.60;99.90
9971;DHT22;5026;51.494;11.974;2024-01-30T03:36:22;4.60;99.90
9971;DHT22;5026;51.494;11.974;2024-01-30T03:38:49;4.50;99.90
9971;DHT22;5026;51.494;11.974;2024-01-30T03:41:16;4.50;99.90
9971;DHT22;5026;51.494;11.974;2024-01-30T03:43:43;4.60;99.90
9971;DHT22;5026;51.494;11.974;2024-01-30T03:46:11;4.70;99.90
9971;DHT22;5026;51.494;11.974;2024-01-30T03:48:40;5.00;99.90
9971;DHT22;5026;51.494;11.974;2024-01-30T03:51:07;4.70;99.90
9971;DHT22;5026;51.494;11.974;2024-01-30T03:53:34;4.60;99.90
9971;DHT22;5026;51.494;11.974;2024-01-30T03:56:01;4.50;99.90
9971;DHT22;5026;51.494;11.974;2024-01-30T03:58:28;4.60;99.90
9971;DHT22;5026;51.494;11.974;2024-01-30T04:00:54;4.60;99.90
9971;DHT22;5026;51.494;11.974;2024-01-30T04:03:21;4.60;99.90
9971;DHT22;5026;51.494;11.974;2024-01-30T04:05:51;4.50;99.90
9971;DHT22;5026;51.494;11.974;2024-01-30T04:08:18;4.50;99.90
9971;DHT22;5026;51.494;11.974;2024-01-30T04:10:45;4.60;99.90
9971;DHT22;5026;51.494;11.974;2024-01-30T04:13:12;4.60;99.90
9971;DHT22;5026;51.494;11.974;2024-01-30T04:15:39;4.50;99.90
9971;DHT22;5026;51.494;11.974;2024-01-30T04:18:06;4.40;99.90
9971;DHT22;5026;51.494;11.974;2024-01-30T04:20:33;4.40;99.90
9971;DHT22;5026;51.494;11.974;2024-01-30T04:23:02;4.30;99.90
9971;DHT22;5026;51.494;11.974;2024-01-30T04:25:28;4.40;99.90
9971;DHT22;5026;51.494;11.974;2024-01-30T04:27:55;4.40;99.90
9971;DHT22;5026;51.494;11.974;2024-01-30T04:30:22;4.30;99.90
9971;DHT22;5026;51.494;11.974;2024-01-30T04:32:49;4.40;99.90
9971;DHT22;5026;51.494;11.974;2024-01-30T04:35:16;4.30;99.90
9971;DHT22;5026;51.494;11.974;2024-01-30T04:37:43;4.30;99.90
9971;DHT22;5026;51.494;11.974;2024-01-30T04:40:12;4.30;99.90
9971;DHT22;5026;51.494;11.974;2024-01-30T04:42:39;4.20;99.90
9971;DHT22;5026;51.494;11.974;2024-01-30T04:45:06;4.20;99.90
9971;DHT22;5026;51.494;11.974;2024-01-30T04:47:33;4.20;99.90
9971;DHT22;5026;51.494;11.974;2024-01-30T04:50:00;4.10;99.90
9971;DHT22;5026;51.494;11.974;2024-01-30T04:52:28;4.10;99.90
9971;DHT22;5026;51.494;11.974;2024-01-30T04:54:55;4.10;99.90
9971;DHT22;5026;51.494;11.974;2024-01-30T04:57:23;4.00;99.90
9971;DHT22;5026;51.494;11.974;2024-01-30T04:59:50;4.00;99.90
9971;DHT22;5026;51.494;11.974;2024-01-30T05:02:17;4.00;99.90
9971;DHT22;5026;51.494;11.974;2024-01-30T05:04:43;4.00;99.90
9971;DHT22;5026;51.494;11.974;2024-01-30T05:07:10;4.10;99.90
9971;DHT22;5026;51.494;11.974;2024-01-30T05:09:37;4.10;99.90
9971;DHT22;5026;51.494;11.974;2024-01-30T05:12:04;4.10;99.90
9971;DHT22;5026;51.494;11.974;2024-01-30T05:14:33;4.00;99.90
9971;DHT22;5026;51.494;11.974;2024-01-30T05:17:00;4.00;99.90
9971;DHT22;5026;51.494;11.974;2024-01-30T05:19:28;4.00;99.90
9971;DHT22;5026;51.494;11.974;2024-01-30T05:21:55;4.00;99.90
9971;DHT22;5026;51.494;11.974;2024-01-30T05:24:22;4.00;99.90
9971;DHT22;5026;51.494;11.974;2024-01-30T05:26:49;3.90;99.90
9971;DHT22;5026;51.494;11.974;2024-01-30T05:29:16;3.90;99.90
9971;DHT22;5026;51.494;11.974;2024-01-30T05:31:45;3.90;99.90
9971;DHT22;5026;51.494;11.974;2024-01-30T05:34:11;4.00;99.90
9971;DHT22;5026;51.494;11.974;2024-01-30T05:36:38;4.00;99.90
9971;DHT22;5026;51.494;11.974;2024-01-30T05:39:05;3.90;99.90
9971;DHT22;5026;51.494;11.974;2024-01-30T05:41:33;3.90;99.90
9971;DHT22;5026;51.494;11.974;2024-01-30T05:43:59;3.90;99.90
9971;DHT22;5026;51.494;11.974;2024-01-30T05:46:26;3.90;99.90
9971;DHT22;5026;51.494;11.974;2024-01-30T05:48:55;3.90;99.90
9971;DHT22;5026;51.494;11.974;2024-01-30T05:51:22;3.90;99.90
9971;DHT22;5026;51.494;11.974;2024-01-30T05:53:49;3.80;99.90
9971;DHT22;5026;51.494;11.974;2024-01-30T05:56:16;4.10;99.90
9971;DHT22;5026;51.494;11.974;2024-01-30T05:58:43;3.90;99.90
9971;DHT22;5026;51.494;11.974;2024-01-30T06:01:10;3.90;99.90
9971;DHT22;5026;51.494;11.974;2024-01-30T06:03:37;3.90;99.90
9971;DHT22;5026;51.494;11.974;2024-01-30T06:06:06;3.90;99.90
9971;DHT22;5026;51.494;11.974;2024-01-30T06:08:33;3.90;99.90
9971;DHT22;5026;51.494;11.974;2024-01-30T06:11:00;3.80;99.90
9971;DHT22;5026;51.494;11.974;2024-01-30T06:13:27;3.80;99.90
9971;DHT22;5026;51.494;11.974;2024-01-30T06:15:57;3.80;99.90
9971;DHT22;5026;51.494;11.974;2024-01-30T06:18:24;4.00;99.90
9971;DHT22;5026;51.494;11.974;2024-01-30T06:20:52;4.00;99.90
9971;DHT22;5026;51.494;11.974;2024-01-30T06:23:20;4.10;99.90
9971;DHT22;5026;51.494;11.974;2024-01-30T06:25:47;4.50;99.90
9971;DHT22;5026;51.494;11.974;2024-01-30T06:28:14;4.80;99.90
9971;DHT22;5026;51.494;11.974;2024-01-30T06:30:41;4.50;99.90
9971;DHT22;5026;51.494;11.974;2024-01-30T06:33:11;4.60;99.90
9971;DHT22;5026;51.494;11.974;2024-01-30T06:35:38;4.40;99.90
9971;DHT22;5026;51.494;11.974;2024-01-30T06:38:05;4.50;99.90
9971;DHT22;5026;51.494;11.974;2024-01-30T06:40:34;4.70;99.90
9971;DHT22;5026;51.494;11.974;2024-01-30T06:43:02;4.60;99.90
9971;DHT22;5026;51.494;11.974;2024-01-30T06:45:29;5.30;99.90
9971;DHT22;5026;51.494;11.974;2024-01-30T06:47:56;4.40;99.90
9971;DHT22;5026;51.494;11.974;2024-01-30T06:50:23;4.40;99.90
9971;DHT22;5026;51.494;11.974;2024-01-30T06:52:50;4.40;99.90
9971;DHT22;5026;51.494;11.974;2024-01-30T06:55:18;4.50;99.90
9971;DHT22;5026;51.494;11.974;2024-01-30T06:57:46;4.40;99.90
9971;DHT22;5026;51.494;11.974;2024-01-30T07:00:14;4.30;99.90
9971;DHT22;5026;51.494;11.974;2024-01-30T07:02:42;4.20;99.90
9971;DHT22;5026;51.494;11.974;2024-01-30T07:05:09;4.50;99.90
9971;DHT22;5026;51.494;11.974;2024-01-30T07:07:36;4.50;99.90
9971;DHT22;5026;51.494;11.974;2024-01-30T07:10:03;4.70;99.90
9971;DHT22;5026;51.494;11.974;2024-01-30T07:12:31;4.70;99.90
9971;DHT22;5026;51.494;11.974;2024-01-30T07:14:59;4.90;99.90
9971;DHT22;5026;51.494;11.974;2024-01-30T07:17:28;4.70;99.90
9971;DHT22;5026;51.494;11.974;2024-01-30T07:19:55;4.70;99.90
9971;DHT22;5026;51.494;11.974;2024-01-30T07:22:22;4.70;99.90
9971;DHT22;5026;51.494;11.974;2024-01-30T07:24:49;4.90;99.90
9971;DHT22;5026;51.494;11.974;2024-01-30T07:27:17;5.10;99.90
9971;DHT22;5026;51.494;11.974;2024-01-30T07:29:44;4.90;99.90
9971;DHT22;5026;51.494;11.974;2024-01-30T07:32:13;4.90;99.90
9971;DHT22;5026;51.494;11.974;2024-01-30T07:34:40;5.00;99.90
9971;DHT22;5026;51.494;11.974;2024-01-30T07:37:06;4.90;99.90
9971;DHT22;5026;51.494;11.974;2024-01-30T07:39:34;5.10;99.90
9971;DHT22;5026;51.494;11.974;2024-01-30T07:42:01;5.20;99.90
9971;DHT22;5026;51.494;11.974;2024-01-30T07:44:28;5.40;99.90
9971;DHT22;5026;51.494;11.974;2024-01-30T07:46:55;5.50;99.90
9971;DHT22;5026;51.494;11.974;2024-01-30T07:49:24;5.40;99.90
9971;DHT22;5026;51.494;11.974;2024-01-30T07:51:51;5.30;99.90
9971;DHT22;5026;51.494;11.974;2024-01-30T07:54:18;5.50;99.90
9971;DHT22;5026;51.494;11.974;2024-01-30T07:56:45;5.70;99.90
9971;DHT22;5026;51.494;11.974;2024-01-30T07:59:12;5.50;99.90
9971;DHT22;5026;51.494;11.974;2024-01-30T08:01:39;5.80;99.90
9971;DHT22;5026;51.494;11.974;2024-01-30T08:04:06;5.60;99.90
9971;DHT22;5026;51.494;11.974;2024-01-30T08:06:34;5.80;99.90
9971;DHT22;5026;51.494;11.974;2024-01-30T08:09:01;5.80;99.90
9971;DHT22;5026;51.494;11.974;2024-01-30T08:11:28;5.80;99.90
9971;DHT22;5026;51.494;11.974;2024-01-30T08:13:55;5.80;99.90
9971;DHT22;5026;51.494;11.974;2024-01-30T08:16:22;6.10;99.90
9971;DHT22;5026;51.494;11.974;2024-01-30T08:18:49;6.10;99.90
9971;DHT22;5026;51.494;11.974;2024-01-30T08:21:16;6.40;99.90
9971;DHT22;5026;51.494;11.974;2024-01-30T08:23:44;6.40;99.90
9971;DHT22;5026;51.494;11.974;2024-01-30T08:26:11;6.60;99.90
9971;DHT22;5026;51.494;11.974;2024-01-30T08:28:38;6.70;99.90
9971;DHT22;5026;51.494;11.974;2024-01-30T08:31:05;6.90;99.90
9971;DHT22;5026;51.494;11.974;2024-01-30T08:33:32;7.40;99.90
9971;DHT22;5026;51.494;11.974;2024-01-30T08:35:59;7.50;99.90
9971;DHT22;5026;51.494;11.974;2024-01-30T08:38:26;7.70;99.90
9971;DHT22;5026;51.494;11.974;2024-01-30T08:40:55;7.90;99.90
9971;DHT22;5026;51.494;11.974;2024-01-30T08:43:22;8.10;99.90
9971;DHT22;5026;51.494;11.974;2024-01-30T08:45:49;8.40;99.70
9971;DHT22;5026;51.494;11.974;2024-01-30T08:48:16;8.40;99.40
9971;DHT22;5026;51.494;11.974;2024-01-30T08:50:44;8.60;99.10
9971;DHT22;5026;51.494;11.974;2024-01-30T08:53:11;8.70;99.10
9971;DHT22;5026;51.494;11.974;2024-01-30T08:55:38;8.80;98.40
9971;DHT22;5026;51.494;11.974;2024-01-30T08:58:07;9.20;98.50
9971;DHT22;5026;51.494;11.974;2024-01-30T09:00:34;9.30;98.50
9971;DHT22;5026;51.494;11.974;2024-01-30T09:03:01;9.20;98.30
9971;DHT22;5026;51.494;11.974;2024-01-30T09:05:28;9.30;97.70
9971;DHT22;5026;51.494;11.974;2024-01-30T09:07:55;9.40;97.80
9971;DHT22;5026;51.494;11.974;2024-01-30T09:10:22;9.20;97.60
9971;DHT22;5026;51.494;11.974;2024-01-30T09:12:49;9.20;97.70
9971;DHT22;5026;51.494;11.974;2024-01-30T09:15:18;9.30;97.70
9971;DHT22;5026;51.494;11.974;2024-01-30T09:17:45;9.40;97.70
9971;DHT22;5026;51.494;11.974;2024-01-30T09:20:12;9.50;97.40
9971;DHT22;5026;51.494;11.974;2024-01-30T09:22:39;9.90;97.40
9971;DHT22;5026;51.494;11.974;2024-01-30T09:25:06;9.90;97.10
9971;DHT22;5026;51.494;11.974;2024-01-30T09:27:33;10.10;96.40
9971;DHT22;5026;51.494;11.974;2024-01-30T09:30:00;10.30;96.40
9971;DHT22;5026;51.494;11.974;2024-01-30T09:32:30;10.50;96.10
9971;DHT22;5026;51.494;11.974;2024-01-30T09:34:57;10.50;95.80
9971;DHT22;5026;51.494;11.974;2024-01-30T09:37:24;10.50;95.70
9971;DHT22;5026;51.494;11.974;2024-01-30T09:39:51;10.40;95.60
9971;DHT22;5026;51.494;11.974;2024-01-30T09:42:24;10.80;95.90
9971;DHT22;5026;51.494;11.974;2024-01-30T09:44:53;10.30;95.70
9971;DHT22;5026;51.494;11.974;2024-01-30T09:47:20;10.20;95.70
9971;DHT22;5026;51.494;11.974;2024-01-30T09:49:49;10.30;95.70
9971;DHT22;5026;51.494;11.974;2024-01-30T09:52:17;10.40;95.60
9971;DHT22;5026;51.494;11.974;2024-01-30T09:54:45;10.80;95.70
9971;DHT22;5026;51.494;11.974;2024-01-30T09:57:12;10.70;95.60
9971;DHT22;5026;51.494;11.974;2024-01-30T09:59:39;10.60;95.50
9971;DHT22;5026;51.494;11.974;2024-01-30T10:02:07;10.60;95.50
9971;DHT22;5026;51.494;11.974;2024-01-30T10:04:34;10.60;95.50
9971;DHT22;5026;51.494;11.974;2024-01-30T10:07:03;10.60;95.50
9971;DHT22;5026;51.494;11.974;2024-01-30T10:09:32;10.60;95.40
9971;DHT22;5026;51.494;11.974;2024-01-30T10:12:02;10.80;95.50
9971;DHT22;5026;51.494;11.974;2024-01-30T10:14:29;10.70;95.40
9971;DHT22;5026;51.494;11.974;2024-01-30T10:16:58;11.10;95.70
9971;DHT22;5026;51.494;11.974;2024-01-30T10:19:24;10.70;95.60
9971;DHT22;5026;51.494;11.974;2024-01-30T10:21:52;10.80;95.50
9971;DHT22;5026;51.494;11.974;2024-01-30T10:24:24;10.80;95.60
9971;DHT22;5026;51.494;11.974;2024-01-30T10:26:51;10.90;95.60
9971;DHT22;5026;51.494;11.974;2024-01-30T10:29:18;11.00;95.60
9971;DHT22;5026;51.494;11.974;2024-01-30T10:31:45;11.00;95.70
9971;DHT22;5026;51.494;11.974;2024-01-30T10:34:12;11.10;95.80
9971;DHT22;5026;51.494;11.974;2024-01-30T10:36:40;11.00;95.70
9971;DHT22;5026;51.494;11.974;2024-01-30T10:39:08;11.00;95.40
9971;DHT22;5026;51.494;11.974;2024-01-30T10:41:42;11.30;95.80
9971;DHT22;5026;51.494;11.974;2024-01-30T10:44:10;11.10;95.80
9971;DHT22;5026;51.494;11.974;2024-01-30T10:46:38;11.20;95.90
9971;DHT22;5026;51.494;11.974;2024-01-30T10:49:05;11.20;95.90
9971;DHT22;5026;51.494;11.974;2024-01-30T10:51:32;11.20;95.70
9971;DHT22;5026;51.494;11.974;2024-01-30T10:54:01;11.20;95.80
9971;DHT22;5026;51.494;11.974;2024-01-30T10:56:29;11.20;95.80
9971;DHT22;5026;51.494;11.974;2024-01-30T10:59:00;11.30;95.80
9971;DHT22;5026;51.494;11.974;2024-01-30T11:01:28;11.30;95.80
9971;DHT22;5026;51.494;11.974;2024-01-30T11:03:55;11.40;95.90
9971;DHT22;5026;51.494;11.974;2024-01-30T11:06:24;11.50;96.10
9971;DHT22;5026;51.494;11.974;2024-01-30T11:09:00;11.60;95.90
9971;DHT22;5026;51.494;11.974;2024-01-30T11:11:29;11.60;95.90
9971;DHT22;5026;51.494;11.974;2024-01-30T11:14:02;11.90;96.10
9971;DHT22;5026;51.494;11.974;2024-01-30T11:16:32;12.00;96.10
9971;DHT22;5026;51.494;11.974;2024-01-30T11:19:00;11.70;96.10
9971;DHT22;5026;51.494;11.974;2024-01-30T11:21:27;11.80;96.10
9971;DHT22;5026;51.494;11.974;2024-01-30T11:23:55;12.00;96.20
9971;DHT22;5026;51.494;11.974;2024-01-30T11:26:27;12.10;96.30
9971;DHT22;5026;51.494;11.974;2024-01-30T11:28:55;11.90;96.30
9971;DHT22;5026;51.494;11.974;2024-01-30T11:31:23;11.90;96.30
9971;DHT22;5026;51.494;11.974;2024-01-30T11:33:52;11.90;96.40
9971;DHT22;5026;51.494;11.974;2024-01-30T11:36:25;12.30;96.50
9971;DHT22;5026;51.494;11.974;2024-01-30T11:38:52;12.00;96.40
9971;DHT22;5026;51.494;11.974;2024-01-30T11:41:19;11.90;96.50
9971;DHT22;5026;51.494;11.974;2024-01-30T11:43:51;11.80;96.70
9971;DHT22;5026;51.494;11.974;2024-01-30T11:46:18;12.00;96.80
9971;DHT22;5026;51.494;11.974;2024-01-30T11:48:46;12.00;97.00
9971;DHT22;5026;51.494;11.974;2024-01-30T11:51:13;11.90;97.10
9971;DHT22;5026;51.494;11.974;2024-01-30T11:53:41;11.90;97.20
9971;DHT22;5026;51.494;11.974;2024-01-30T11:56:08;12.20;97.30
9971;DHT22;5026;51.494;11.974;2024-01-30T11:58:35;11.90;97.30
9971;DHT22;5026;51.494;11.974;2024-01-30T12:01:02;11.90;97.30
9971;DHT22;5026;51.494;11.974;2024-01-30T12:03:29;12.00;97.30
9971;DHT22;5026;51.494;11.974;2024-01-30T12:05:58;12.10;97.40
9971;DHT22;5026;51.494;11.974;2024-01-30T12:08:26;12.20;97.50
9971;DHT22;5026;51.494;11.974;2024-01-30T12:10:56;12.40;97.50
9971;DHT22;5026;51.494;11.974;2024-01-30T12:13:24;12.60;97.50
9971;DHT22;5026;51.494;11.974;2024-01-30T12:15:52;12.60;97.40
9971;DHT22;5026;51.494;11.974;2024-01-30T12:18:19;12.70;97.40
9971;DHT22;5026;51.494;11.974;2024-01-30T12:20:58;12.80;97.50
9971;DHT22;5026;51.494;11.974;2024-01-30T12:23:26;12.60;97.50
9971;DHT22;5026;51.494;11.974;2024-01-30T12:25:53;12.80;97.50
9971;DHT22;5026;51.494;11.974;2024-01-30T12:28:20;12.60;97.60
9971;DHT22;5026;51.494;11.974;2024-01-30T12:30:47;12.80;97.70
9971;DHT22;5026;51.494;11.974;2024-01-30T12:33:16;12.50;97.60
9971;DHT22;5026;51.494;11.974;2024-01-30T12:35:46;12.60;97.50
9971;DHT22;5026;51.494;11.974;2024-01-30T12:38:14;12.40;97.60
9971;DHT22;5026;51.494;11.974;2024-01-30T12:40:41;12.50;97.60
9971;DHT22;5026;51.494;11.974;2024-01-30T12:43:08;12.60;97.60
9971;DHT22;5026;51.494;11.974;2024-01-30T12:45:36;12.70;97.60
9971;DHT22;5026;51.494;11.974;2024-01-30T12:48:03;12.90;97.70
9971;DHT22;5026;51.494;11.974;2024-01-30T12:50:30;12.80;97.50
9971;DHT22;5026;51.494;11.974;2024-01-30T12:52:57;12.90;97.60
9971;DHT22;5026;51.494;11.974;2024-01-30T12:55:26;12.90;97.50
9971;DHT22;5026;51.494;11.974;2024-01-30T12:57:54;13.00;97.60
9971;DHT22;5026;51.494;11.974;2024-01-30T13:00:21;13.00;97.60
9971;DHT22;5026;51.494;11.974;2024-01-30T13:02:48;12.90;97.70
9971;DHT22;5026;51.494;11.974;2024-01-30T13:05:15;13.00;97.70
9971;DHT22;5026;51.494;11.974;2024-01-30T13:07:43;13.00;97.70
9971;DHT22;5026;51.494;11.974;2024-01-30T13:10:10;13.00;97.70
9971;DHT22;5026;51.494;11.974;2024-01-30T13:12:38;12.90;97.70
9971;DHT22;5026;51.494;11.974;2024-01-30T13:15:06;12.90;98.00
9971;DHT22;5026;51.494;11.974;2024-01-30T13:17:33;12.80;97.90
9971;DHT22;5026;51.494;11.974;2024-01-30T13:20:00;12.80;97.90
9971;DHT22;5026;51.494;11.974;2024-01-30T13:22:27;12.70;98.00
9971;DHT22;5026;51.494;11.974;2024-01-30T13:24:54;12.90;98.20
9971;DHT22;5026;51.494;11.974;2024-01-30T13:27:21;12.60;98.30
9971;DHT22;5026;51.494;11.974;2024-01-30T13:29:49;12.50;98.30
9971;DHT22;5026;51.494;11.974;2024-01-30T13:32:16;12.50;98.50
9971;DHT22;5026;51.494;11.974;2024-01-30T13:34:43;12.40;98.60
9971;DHT22;5026;51.494;11.974;2024-01-30T13:37:10;12.30;98.50
9971;DHT22;5026;51.494;11.974;2024-01-30T13:39:37;12.30;98.80
9971;DHT22;5026;51.494;11.974;2024-01-30T13:42:04;12.40;99.10
9971;DHT22;5026;51.494;11.974;2024-01-30T13:44:31;12.20;99.10
9971;DHT22;5026;51.494;11.974;2024-01-30T13:47:00;12.10;99.20
9971;DHT22;5026;51.494;11.974;2024-01-30T13:49:27;12.30;99.40
9971;DHT22;5026;51.494;11.974;2024-01-30T13:51:54;12.10;99.40
9971;DHT22;5026;51.494;11.974;2024-01-30T13:54:21;12.10;99.50
9971;DHT22;5026;51.494;11.974;2024-01-30T13:56:48;12.10;99.50
9971;DHT22;5026;51.494;11.974;2024-01-30T13:59:15;12.10;99.60
9971;DHT22;5026;51.494;11.974;2024-01-30T14:01:48;12.10;99.60
9971;DHT22;5026;51.494;11.974;2024-01-30T14:04:17;12.20;99.70
9971;DHT22;5026;51.494;11.974;2024-01-30T14:06:44;12.10;99.80
9971;DHT22;5026;51.494;11.974;2024-01-30T14:09:11;12.10;99.90
9971;DHT22;5026;51.494;11.974;2024-01-30T14:11:40;12.00;99.90
9971;DHT22;5026;51.494;11.974;2024-01-30T14:14:08;12.10;99.80
9971;DHT22;5026;51.494;11.974;2024-01-30T14:16:35;12.20;99.90
9971;DHT22;5026;51.494;11.974;2024-01-30T14:19:02;12.00;99.90
9971;DHT22;5026;51.494;11.974;2024-01-30T14:21:30;12.10;99.90
9971;DHT22;5026;51.494;11.974;2024-01-30T14:23:57;12.00;99.90
9971;DHT22;5026;51.494;11.974;2024-01-30T14:26:24;12.20;99.90
9971;DHT22;5026;51.494;11.974;2024-01-30T14:28:51;11.90;99.90
9971;DHT22;5026;51.494;11.974;2024-01-30T14:31:19;11.90;99.90
9971;DHT22;5026;51.494;11.974;2024-01-30T14:33:47;11.70;99.90
9971;DHT22;5026;51.494;11.974;2024-01-30T14:36:14;11.70;99.90
9971;DHT22;5026;51.494;11.974;2024-01-30T14:38:42;11.70;99.90
9971;DHT22;5026;51.494;11.974;2024-01-30T14:41:10;11.60;99.90
9971;DHT22;5026;51.494;11.974;2024-01-30T14:43:37;11.60;99.90
9971;DHT22;5026;51.494;11.974;2024-01-30T14:46:04;11.60;99.90
9971;DHT22;5026;51.494;11.974;2024-01-30T14:48:32;11.60;99.90
9971;DHT22;5026;51.494;11.974;2024-01-30T14:51:00;11.50;99.90
9971;DHT22;5026;51.494;11.974;2024-01-30T14:53:26;11.50;99.90
9971;DHT22;5026;51.494;11.974;2024-01-30T14:55:55;11.40;99.90
9971;DHT22;5026;51.494;11.974;2024-01-30T14:58:22;11.30;99.90
9971;DHT22;5026;51.494;11.974;2024-01-30T15:00:49;11.30;99.90
9971;DHT22;5026;51.494;11.974;2024-01-30T15:03:16;11.20;99.90
9971;DHT22;5026;51.494;11.974;2024-01-30T15:05:43;11.20;99.90
9971;DHT22;5026;51.494;11.974;2024-01-30T15:08:10;11.30;99.90
9971;DHT22;5026;51.494;11.974;2024-01-30T15:10:37;11.30;99.90
9971;DHT22;5026;51.494;11.974;2024-01-30T15:13:05;11.20;99.90
9971;DHT22;5026;51.494;11.974;2024-01-30T15:15:32;10.90;99.90
9971;DHT22;5026;51.494;11.974;2024-01-30T15:18:00;10.90;99.90
9971;DHT22;5026;51.494;11.974;2024-01-30T15:20:26;11.20;99.90
9971;DHT22;5026;51.494;11.974;2024-01-30T15:22:53;10.70;99.90
9971;DHT22;5026;51.494;11.974;2024-01-30T15:25:20;10.70;99.90
9971;DHT22;5026;51.494;11.974;2024-01-30T15:27:47;10.70;99.90
9971;DHT22;5026;51.494;11.974;2024-01-30T15:30:16;10.70;99.90
9971;DHT22;5026;51.494;11.974;2024-01-30T15:32:45;10.70;99.90
9971;DHT22;5026;51.494;11.974;2024-01-30T15:35:12;10.30;99.90
9971;DHT22;5026;51.494;11.974;2024-01-30T15:37:39;10.20;99.90
9971;DHT22;5026;51.494;11.974;2024-01-30T15:40:07;10.50;99.90
9971;DHT22;5026;51.494;11.974;2024-01-30T15:42:34;10.10;99.90
9971;DHT22;5026;51.494;11.974;2024-01-30T15:45:01;10.20;99.90
9971;DHT22;5026;51.494;11.974;2024-01-30T15:47:29;10.10;99.90
9971;DHT22;5026;51.494;11.974;2024-01-30T15:49:57;10.40;99.90
9971;DHT22;5026;51.494;11.974;2024-01-30T15:52:24;9.90;99.90
9971;DHT22;5026;51.494;11.974;2024-01-30T15:54:51;9.80;99.90